sensor_id;sensor_type;location;lat;lon;timestamp;pressure;altitude;pressure_sealevel;temperature;humidity
27334;BME280;14817;57.104;-2.094;2023-05-10T00:02:08;99915.72;;;9.89;100.00
27334;BME280;14817;57.104;-2.094;2023-05-10T00:04:35;99915.06;;;9.87;100.00
27334;BME280;14817;57.104;-2.094;2023-05-10T00:07:01;99916.38;;;9.83;100.00
27334;BME280;14817;57.104;-2.094;2023-05-10T00:09:28;99908.53;;;9.81;100.00
27334;BME280;14817;57.104;-2.094;2023-05-10T00:11:55;99913.19;;;9.71;100.00
27334;BME280;14817;57.104;-2.094;2023-05-10T00:14:24;99902.31;;;9.65;100.00
27334;BME280;14817;57.104;-2.094;2023-05-10T00:16:51;99894.28;;;9.65;100.00
27334;BME280;14817;57.104;-2.094;2023-05-10T00:19:18;99900.31;;;9.75;100.00
27334;BME280;14817;57.104;-2.094;2023-05-10T00:21:45;99895.41;;;9.62;100.00
27334;BME280;14817;57.104;-2.094;2023-05-10T00:24:12;99895.91;;;9.57;100.00
27334;BME280;14817;57.104;-2.094;2023-05-10T00:26:39;99897.88;;;9.47;100.00
27334;BME280;14817;57.104;-2.094;2023-05-10T00:29:06;99904.22;;;9.46;100.00
27334;BME280;14817;57.104;-2.094;2023-05-10T00:31:33;99906.41;;;9.51;100.00
27334;BME280;14817;57.104;-2.094;2023-05-10T00:33:59;99911.53;;;9.36;100.00
27334;BME280;14817;57.104;-2.094;2023-05-10T00:36:26;99916.81;;;9.54;100.00
27334;BME280;14817;57.104;-2.094;2023-05-10T00:38:54;99919.28;;;9.55;100.00
27334;BME280;14817;57.104;-2.094;2023-05-10T00:41:20;99917.97;;;9.59;100.00
27334;BME280;14817;57.104;-2.094;2023-05-10T00:43:48;99917.66;;;9.63;100.00
27334;BME280;14817;57.104;-2.094;2023-05-10T00:46:15;99918.03;;;9.33;100.00
27334;BME280;14817;57.104;-2.094;2023-05-10T00:48:43;99917.25;;;9.41;100.00
27334;BME280;14817;57.104;-2.094;2023-05-10T00:51:10;99918.47;;;9.55;100.00
27334;BME280;14817;57.104;-2.094;2023-05-10T00:53:37;99915.88;;;9.37;100.00
27334;BME280;14817;57.104;-2.094;2023-05-10T00:56:04;99921.91;;;9.39;100.00
27334;BME280;14817;57.104;-2.094;2023-05-10T00:58:32;99924.88;;;9.36;100.00
27334;BME280;14817;57.104;-2.094;2023-05-10T01:01:00;99915.34;;;9.33;100.00
27334;BME280;14817;57.104;-2.094;2023-05-10T01:03:28;99920.59;;;9.43;100.00
27334;BME280;14817;57.104;-2.094;2023-05-10T01:05:55;99926.47;;;9.55;100.00
27334;BME280;14817;57.104;-2.094;2023-05-10T01:08:23;99924.34;;;9.32;100.00
27334;BME280;14817;57.104;-2.094;2023-05-10T01:10:51;99920.22;;;9.38;100.00
27334;BME280;14817;57.104;-2.094;2023-05-10T01:15:54;99920.31;;;9.54;100.00
27334;BME280;14817;57.104;-2.094;2023-05-10T01:18:21;99919.28;;;9.55;100.00
27334;BME280;14817;57.104;-2.094;2023-05-10T01:20:58;99921.31;;;9.61;100.00
27334;BME280;14817;57.104;-2.094;2023-05-10T01:34:27;99892.78;;;9.70;100.00
27334;BME280;14817;57.104;-2.094;2023-05-10T01:37:03;99891.09;;;9.61;100.00
27334;BME280;14817;57.104;-2.094;2023-05-10T01:39:40;99898.38;;;9.51;100.00
27334;BME280;14817;57.104;-2.094;2023-05-10T01:42:16;99893.91;;;9.59;100.00
27334;BME280;14817;57.104;-2.094;2023-05-10T01:47:40;99901.97;;;9.68;100.00
27334;BME280;14817;57.104;-2.094;2023-05-10T01:50:14;99906.13;;;9.62;100.00
27334;BME280;14817;57.104;-2.094;2023-05-10T01:52:44;99913.19;;;9.71;100.00
27334;BME280;14817;57.104;-2.094;2023-05-10T01:55:16;99909.16;;;9.67;100.00
27334;BME280;14817;57.104;-2.094;2023-05-10T01:57:46;99898.63;;;9.66;100.00
27334;BME280;14817;57.104;-2.094;2023-05-10T02:00:15;99904.44;;;9.61;100.00
27334;BME280;14817;57.104;-2.094;2023-05-10T02:02:48;99906.34;;;9.69;100.00
27334;BME280;14817;57.104;-2.094;2023-05-10T02:05:18;99907.97;;;9.61;100.00
27334;BME280;14817;57.104;-2.094;2023-05-10T02:07:47;99912.97;;;9.56;100.00
27334;BME280;14817;57.104;-2.094;2023-05-10T02:10:14;99900.94;;;9.60;100.00
27334;BME280;14817;57.104;-2.094;2023-05-10T02:12:44;99902.16;;;9.74;100.00
27334;BME280;14817;57.104;-2.094;2023-05-10T02:15:15;99893.22;;;9.57;100.00
27334;BME280;14817;57.104;-2.094;2023-05-10T02:17:45;99896.97;;;9.73;100.00
27334;BME280;14817;57.104;-2.094;2023-05-10T02:20:13;99884.03;;;9.60;100.00
27334;BME280;14817;57.104;-2.094;2023-05-10T02:22:43;99899.22;;;9.51;100.00
27334;BME280;14817;57.104;-2.094;2023-05-10T02:25:13;99886.03;;;9.50;100.00
27334;BME280;14817;57.104;-2.094;2023-05-10T02:27:41;99887.53;;;9.52;100.00
27334;BME280;14817;57.104;-2.094;2023-05-10T02:30:10;99884.19;;;9.50;100.00
27334;BME280;14817;57.104;-2.094;2023-05-10T02:32:37;99878.47;;;9.45;100.00
27334;BME280;14817;57.104;-2.094;2023-05-10T02:35:09;99892.84;;;9.44;100.00
27334;BME280;14817;57.104;-2.094;2023-05-10T02:37:37;99890.19;;;9.44;100.00
27334;BME280;14817;57.104;-2.094;2023-05-10T02:40:05;99889.84;;;9.47;100.00
27334;BME280;14817;57.104;-2.094;2023-05-10T02:42:36;99877.84;;;9.51;100.00
27334;BME280;14817;57.104;-2.094;2023-05-10T02:45:12;99879.56;;;9.60;100.00
27334;BME280;14817;57.104;-2.094;2023-05-10T02:47:41;99883.81;;;9.37;100.00
27334;BME280;14817;57.104;-2.094;2023-05-10T02:50:09;99877.69;;;9.53;100.00
27334;BME280;14817;57.104;-2.094;2023-05-10T02:52:44;99877.16;;;9.49;100.00
27334;BME280;14817;57.104;-2.094;2023-05-10T02:55:14;99869.94;;;9.33;100.00
27334;BME280;14817;57.104;-2.094;2023-05-10T02:57:48;99876.78;;;9.36;100.00
27334;BME280;14817;57.104;-2.094;2023-05-10T03:00:17;99881.94;;;9.29;100.00
27334;BME280;14817;57.104;-2.094;2023-05-10T03:02:44;99877.06;;;9.25;100.00
27334;BME280;14817;57.104;-2.094;2023-05-10T03:05:11;99882.41;;;9.25;100.00
27334;BME280;14817;57.104;-2.094;2023-05-10T03:07:38;99876.53;;;9.21;100.00
27334;BME280;14817;57.104;-2.094;2023-05-10T03:10:05;99881.59;;;9.32;100.00
27334;BME280;14817;57.104;-2.094;2023-05-10T03:18:24;99876.63;;;9.37;100.00
27334;BME280;14817;57.104;-2.094;2023-05-10T03:20:57;99872.69;;;9.50;100.00
27334;BME280;14817;57.104;-2.094;2023-05-10T03:25:59;99867.06;;;9.27;100.00
27334;BME280;14817;57.104;-2.094;2023-05-10T03:28:27;99863.03;;;9.23;100.00
27334;BME280;14817;57.104;-2.094;2023-05-10T03:30:54;99860.66;;;9.19;100.00
27334;BME280;14817;57.104;-2.094;2023-05-10T03:33:23;99870.03;;;9.24;100.00
27334;BME280;14817;57.104;-2.094;2023-05-10T03:35:50;99863.34;;;9.19;100.00
27334;BME280;14817;57.104;-2.094;2023-05-10T03:38:17;99861.63;;;9.10;100.00
27334;BME280;14817;57.104;-2.094;2023-05-10T03:40:45;99862.59;;;9.01;100.00
27334;BME280;14817;57.104;-2.094;2023-05-10T03:43:12;99867.81;;;9.11;100.00
27334;BME280;14817;57.104;-2.094;2023-05-10T03:45:39;99861.63;;;9.10;100.00
27334;BME280;14817;57.104;-2.094;2023-05-10T03:48:06;99865.63;;;9.06;100.00
27334;BME280;14817;57.104;-2.094;2023-05-10T03:50:33;99858.28;;;9.08;100.00
27334;BME280;14817;57.104;-2.094;2023-05-10T03:53:01;99860.66;;;9.11;100.00
27334;BME280;14817;57.104;-2.094;2023-05-10T03:55:28;99853.63;;;9.10;100.00
27334;BME280;14817;57.104;-2.094;2023-05-10T03:57:57;99857.59;;;9.06;100.00
27334;BME280;14817;57.104;-2.094;2023-05-10T04:00:24;99866.34;;;9.16;100.00
27334;BME280;14817;57.104;-2.094;2023-05-10T04:02:53;99853.84;;;8.91;100.00
27334;BME280;14817;57.104;-2.094;2023-05-10T04:05:21;99859.59;;;9.04;100.00
27334;BME280;14817;57.104;-2.094;2023-05-10T04:07:50;99859.13;;;9.09;100.00
27334;BME280;14817;57.104;-2.094;2023-05-10T04:10:17;99854.59;;;9.01;100.00
27334;BME280;14817;57.104;-2.094;2023-05-10T04:12:44;99850.75;;;9.04;100.00
27334;BME280;14817;57.104;-2.094;2023-05-10T04:15:12;99847.25;;;9.03;100.00
27334;BME280;14817;57.104;-2.094;2023-05-10T04:17:38;99854.25;;;9.04;100.00
27334;BME280;14817;57.104;-2.094;2023-05-10T04:20:06;99865.31;;;9.09;100.00
27334;BME280;14817;57.104;-2.094;2023-05-10T04:22:33;99851.22;;;8.99;100.00
27334;BME280;14817;57.104;-2.094;2023-05-10T04:25:00;99850.41;;;9.07;100.00
27334;BME280;14817;57.104;-2.094;2023-05-10T04:27:27;99855.25;;;9.03;100.00
27334;BME280;14817;57.104;-2.094;2023-05-10T04:29:54;99862.59;;;9.01;100.00
27334;BME280;14817;57.104;-2.094;2023-05-10T04:32:21;99861.53;;;8.94;100.00
27334;BME280;14817;57.104;-2.094;2023-05-10T04:34:49;99855.75;;;9.07;100.00
27334;BME280;14817;57.104;-2.094;2023-05-10T04:37:17;99855.25;;;9.03;100.00
27334;BME280;14817;57.104;-2.094;2023-05-10T04:39:44;99855.25;;;9.03;100.00
27334;BME280;14817;57.104;-2.094;2023-05-10T04:42:11;99853.28;;;9.05;100.00
27334;BME280;14817;57.104;-2.094;2023-05-10T04:44:38;99854.88;;;8.98;100.00
27334;BME280;14817;57.104;-2.094;2023-05-10T04:47:05;99857.56;;;8.98;100.00
27334;BME280;14817;57.104;-2.094;2023-05-10T04:49:31;99856.19;;;8.94;100.00
27334;BME280;14817;57.104;-2.094;2023-05-10T04:51:59;99857.56;;;8.98;100.00
27334;BME280;14817;57.104;-2.094;2023-05-10T04:54:26;99859.41;;;8.97;100.00
27334;BME280;14817;57.104;-2.094;2023-05-10T04:56:53;99862.22;;;8.96;100.00
27334;BME280;14817;57.104;-2.094;2023-05-10T04:59:20;99866.88;;;8.94;100.00
27334;BME280;14817;57.104;-2.094;2023-05-10T05:01:46;99863.69;;;8.90;100.00
27334;BME280;14817;57.104;-2.094;2023-05-10T05:04:13;99856.31;;;8.84;100.00
27334;BME280;14817;57.104;-2.094;2023-05-10T05:06:41;99870.22;;;8.96;100.00
27334;BME280;14817;57.104;-2.094;2023-05-10T05:09:08;99865.69;;;8.88;100.00
27334;BME280;14817;57.104;-2.094;2023-05-10T05:11:36;99870.56;;;8.93;100.00
27334;BME280;14817;57.104;-2.094;2023-05-10T05:14:03;99864.59;;;8.99;100.00
27334;BME280;14817;57.104;-2.094;2023-05-10T05:16:30;99871.50;;;9.10;100.00
27334;BME280;14817;57.104;-2.094;2023-05-10T05:18:59;99868.97;;;9.08;100.00
27334;BME280;14817;57.104;-2.094;2023-05-10T05:21:26;99872.13;;;9.04;100.00
27334;BME280;14817;57.104;-2.094;2023-05-10T05:23:53;99878.66;;;9.09;100.00
27334;BME280;14817;57.104;-2.094;2023-05-10T05:26:20;99879.34;;;9.11;100.00
27334;BME280;14817;57.104;-2.094;2023-05-10T05:28:47;99887.38;;;9.11;100.00
27334;BME280;14817;57.104;-2.094;2023-05-10T05:31:15;99889.41;;;9.17;100.00
27334;BME280;14817;57.104;-2.094;2023-05-10T05:33:41;99889.41;;;9.17;100.00
27334;BME280;14817;57.104;-2.094;2023-05-10T05:36:09;99893.09;;;9.25;100.00
27334;BME280;14817;57.104;-2.094;2023-05-10T05:38:35;99890.44;;;9.25;100.00
27334;BME280;14817;57.104;-2.094;2023-05-10T05:41:02;99887.88;;;9.15;100.00
27334;BME280;14817;57.104;-2.094;2023-05-10T05:43:29;99892.72;;;9.19;100.00
27334;BME280;14817;57.104;-2.094;2023-05-10T05:45:56;99895.41;;;9.19;100.00
27334;BME280;14817;57.104;-2.094;2023-05-10T05:48:24;99895.94;;;9.23;100.00
27334;BME280;14817;57.104;-2.094;2023-05-10T05:50:55;99887.38;;;9.19;100.00
27334;BME280;14817;57.104;-2.094;2023-05-10T05:53:23;99894.41;;;9.20;100.00
27334;BME280;14817;57.104;-2.094;2023-05-10T05:55:57;99889.75;;;9.23;100.00
27334;BME280;14817;57.104;-2.094;2023-05-10T05:58:25;99897.25;;;9.19;100.00
27334;BME280;14817;57.104;-2.094;2023-05-10T06:00:53;99895.44;;;9.28;100.00
27334;BME280;14817;57.104;-2.094;2023-05-10T06:03:20;99891.53;;;9.14;100.00
27334;BME280;14817;57.104;-2.094;2023-05-10T06:05:47;99891.91;;;9.19;100.00
27334;BME280;14817;57.104;-2.094;2023-05-10T06:08:14;99895.78;;;9.25;100.00
27334;BME280;14817;57.104;-2.094;2023-05-10T06:10:41;99897.44;;;9.26;100.00
27334;BME280;14817;57.104;-2.094;2023-05-10T06:13:08;99900.25;;;9.16;100.00
27334;BME280;14817;57.104;-2.094;2023-05-10T06:15:36;99900.72;;;9.11;100.00
27334;BME280;14817;57.104;-2.094;2023-05-10T06:18:02;99900.91;;;9.18;100.00
27334;BME280;14817;57.104;-2.094;2023-05-10T06:20:32;99894.75;;;9.17;100.00
27334;BME280;14817;57.104;-2.094;2023-05-10T06:22:59;99896.06;;;9.22;100.00
27334;BME280;14817;57.104;-2.094;2023-05-10T06:25:26;99897.13;;;9.29;100.00
27334;BME280;14817;57.104;-2.094;2023-05-10T06:27:52;99894.63;;;9.27;100.00
27334;BME280;14817;57.104;-2.094;2023-05-10T06:30:25;99896.94;;;9.22;100.00
27334;BME280;14817;57.104;-2.094;2023-05-10T06:32:56;99896.06;;;9.22;100.00
27334;BME280;14817;57.104;-2.094;2023-05-10T06:35:23;99890.44;;;9.25;100.00
27334;BME280;14817;57.104;-2.094;2023-05-10T06:37:50;99894.38;;;9.12;100.00
27334;BME280;14817;57.104;-2.094;2023-05-10T06:40:19;99893.25;;;9.23;100.00
27334;BME280;14817;57.104;-2.094;2023-05-10T06:42:47;99892.09;;;9.26;100.00
27334;BME280;14817;57.104;-2.094;2023-05-10T06:45:14;99892.44;;;9.23;100.00
27334;BME280;14817;57.104;-2.094;2023-05-10T06:47:43;99891.47;;;9.32;100.00
27334;BME280;14817;57.104;-2.094;2023-05-10T06:50:10;99895.16;;;9.31;100.00
27334;BME280;14817;57.104;-2.094;2023-05-10T06:52:38;99896.50;;;9.35;100.00
27334;BME280;14817;57.104;-2.094;2023-05-10T06:55:06;99893.78;;;9.27;100.00
27334;BME280;14817;57.104;-2.094;2023-05-10T06:57:32;99888.41;;;9.18;100.00
27334;BME280;14817;57.104;-2.094;2023-05-10T06:59:59;99889.41;;;9.26;100.00
27334;BME280;14817;57.104;-2.094;2023-05-10T07:02:26;99884.94;;;9.26;100.00
27334;BME280;14817;57.104;-2.094;2023-05-10T07:04:53;99884.13;;;9.34;100.00
27334;BME280;14817;57.104;-2.094;2023-05-10T07:07:20;99882.47;;;9.33;100.00
27334;BME280;14817;57.104;-2.094;2023-05-10T07:09:47;99873.81;;;9.39;100.00
27334;BME280;14817;57.104;-2.094;2023-05-10T07:12:15;99862.44;;;9.37;100.00
27334;BME280;14817;57.104;-2.094;2023-05-10T07:14:42;99865.63;;;9.49;100.00
27334;BME280;14817;57.104;-2.094;2023-05-10T07:17:09;99856.03;;;9.30;100.00
27334;BME280;14817;57.104;-2.094;2023-05-10T07:19:36;99858.41;;;9.33;100.00
27334;BME280;14817;57.104;-2.094;2023-05-10T07:22:03;99854.69;;;9.26;100.00
27334;BME280;14817;57.104;-2.094;2023-05-10T07:24:30;99854.06;;;9.32;100.00
27334;BME280;14817;57.104;-2.094;2023-05-10T07:26:58;99852.06;;;9.34;100.00
27334;BME280;14817;57.104;-2.094;2023-05-10T07:29:25;99850.78;;;9.46;100.00
27334;BME280;14817;57.104;-2.094;2023-05-10T07:31:51;99846.25;;;9.47;100.00
27334;BME280;14817;57.104;-2.094;2023-05-10T07:34:18;99848.94;;;9.47;100.00
27334;BME280;14817;57.104;-2.094;2023-05-10T07:36:45;99844.06;;;9.42;100.00
27334;BME280;14817;57.104;-2.094;2023-05-10T07:39:12;99843.09;;;9.51;100.00
27334;BME280;14817;57.104;-2.094;2023-05-10T07:41:50;99842.25;;;9.51;100.00
27334;BME280;14817;57.104;-2.094;2023-05-10T07:44:16;99838.91;;;9.49;100.00
27334;BME280;14817;57.104;-2.094;2023-05-10T07:46:46;99838.75;;;9.50;100.00
27334;BME280;14817;57.104;-2.094;2023-05-10T07:49:13;99835.06;;;9.51;100.00
27334;BME280;14817;57.104;-2.094;2023-05-10T07:51:40;99833.72;;;9.39;100.00
27334;BME280;14817;57.104;-2.094;2023-05-10T07:54:06;99833.72;;;9.39;100.00
27334;BME280;14817;57.104;-2.094;2023-05-10T07:56:34;99823.53;;;9.43;100.00
27334;BME280;14817;57.104;-2.094;2023-05-10T07:59:02;99827.38;;;9.48;100.00
27334;BME280;14817;57.104;-2.094;2023-05-10T08:01:31;99818.19;;;9.43;100.00
27334;BME280;14817;57.104;-2.094;2023-05-10T08:04:00;99816.22;;;9.61;100.00
27334;BME280;14817;57.104;-2.094;2023-05-10T08:06:28;99813.06;;;9.66;100.00
27334;BME280;14817;57.104;-2.094;2023-05-10T08:08:56;99808.44;;;9.92;100.00
27334;BME280;14817;57.104;-2.094;2023-05-10T08:11:23;99811.28;;;9.91;100.00
27334;BME280;14817;57.104;-2.094;2023-05-10T08:13:50;99808.75;;;9.81;100.00
27334;BME280;14817;57.104;-2.094;2023-05-10T08:16:18;99803.72;;;9.78;100.00
27334;BME280;14817;57.104;-2.094;2023-05-10T08:18:46;99795.84;;;9.52;100.00
27334;BME280;14817;57.104;-2.094;2023-05-10T08:21:14;99790.69;;;9.75;100.00
27334;BME280;14817;57.104;-2.094;2023-05-10T08:23:42;99793.72;;;9.96;100.00
27334;BME280;14817;57.104;-2.094;2023-05-10T08:26:11;99783.19;;;10.19;100.00
27334;BME280;14817;57.104;-2.094;2023-05-10T08:28:38;99788.03;;;10.16;100.00
27334;BME280;14817;57.104;-2.094;2023-05-10T08:31:05;99780.84;;;10.08;100.00
27334;BME280;14817;57.104;-2.094;2023-05-10T08:33:32;99774.97;;;10.13;100.00
27334;BME280;14817;57.104;-2.094;2023-05-10T08:35:59;99786.03;;;10.10;100.00
27334;BME280;14817;57.104;-2.094;2023-05-10T08:38:26;99781.50;;;10.02;100.00
27334;BME280;14817;57.104;-2.094;2023-05-10T08:40:54;99783.88;;;9.97;100.00
27334;BME280;14817;57.104;-2.094;2023-05-10T08:43:29;99775.81;;;10.13;100.00
27334;BME280;14817;57.104;-2.094;2023-05-10T08:46:00;99773.50;;;10.35;100.00
27334;BME280;14817;57.104;-2.094;2023-05-10T08:48:29;99768.47;;;10.40;100.00
27334;BME280;14817;57.104;-2.094;2023-05-10T08:50:59;99762.47;;;10.38;100.00
27334;BME280;14817;57.104;-2.094;2023-05-10T08:53:29;99762.28;;;10.23;100.00
27334;BME280;14817;57.104;-2.094;2023-05-10T08:55:59;99760.28;;;10.41;100.00
27334;BME280;14817;57.104;-2.094;2023-05-10T08:58:26;99761.25;;;10.24;100.00
27334;BME280;14817;57.104;-2.094;2023-05-10T09:00:53;99759.78;;;10.38;100.00
27334;BME280;14817;57.104;-2.094;2023-05-10T09:03:20;99758.91;;;10.54;100.00
27334;BME280;14817;57.104;-2.094;2023-05-10T09:05:48;99751.06;;;10.44;100.00
27334;BME280;14817;57.104;-2.094;2023-05-10T09:08:15;99751.91;;;10.36;100.00
27334;BME280;14817;57.104;-2.094;2023-05-10T09:10:44;99754.91;;;10.50;100.00
27334;BME280;14817;57.104;-2.094;2023-05-10T09:13:14;99749.56;;;10.50;100.00
27334;BME280;14817;57.104;-2.094;2023-05-10T09:15:45;99742.91;;;10.37;100.00
27334;BME280;14817;57.104;-2.094;2023-05-10T09:18:13;99737.69;;;10.28;100.00
27334;BME280;14817;57.104;-2.094;2023-05-10T09:20:40;99737.53;;;10.37;100.00
27334;BME280;14817;57.104;-2.094;2023-05-10T09:23:07;99737.47;;;10.62;100.00
27334;BME280;14817;57.104;-2.094;2023-05-10T09:25:34;99732.63;;;10.57;100.00
27334;BME280;14817;57.104;-2.094;2023-05-10T09:28:01;99738.22;;;10.87;100.00
27334;BME280;14817;57.104;-2.094;2023-05-10T09:30:30;99737.28;;;10.72;100.00
27334;BME280;14817;57.104;-2.094;2023-05-10T09:32:58;99736.75;;;10.76;100.00
27334;BME280;14817;57.104;-2.094;2023-05-10T09:35:27;99735.72;;;10.77;100.00
27334;BME280;14817;57.104;-2.094;2023-05-10T09:38:03;99740.50;;;10.98;100.00
27334;BME280;14817;57.104;-2.094;2023-05-10T09:40:30;99740.31;;;11.08;100.00
27334;BME280;14817;57.104;-2.094;2023-05-10T09:45:30;99737.69;;;11.31;100.00
27334;BME280;14817;57.104;-2.094;2023-05-10T09:47:58;99732.72;;;11.43;100.00
27334;BME280;14817;57.104;-2.094;2023-05-10T09:50:26;99730.38;;;11.48;100.00
27334;BME280;14817;57.104;-2.094;2023-05-10T09:53:00;99729.28;;;11.57;100.00
27334;BME280;14817;57.104;-2.094;2023-05-10T09:55:44;99729.19;;;11.74;100.00
27334;BME280;14817;57.104;-2.094;2023-05-10T09:58:13;99730.78;;;11.60;100.00
27334;BME280;14817;57.104;-2.094;2023-05-10T10:00:45;99738.91;;;11.20;100.00
27334;BME280;14817;57.104;-2.094;2023-05-10T10:03:16;99726.50;;;11.74;100.00
27334;BME280;14817;57.104;-2.094;2023-05-10T10:05:44;99730.69;;;11.45;100.00
27334;BME280;14817;57.104;-2.094;2023-05-10T10:08:12;99733.31;;;11.30;100.00
27334;BME280;14817;57.104;-2.094;2023-05-10T10:10:40;99726.13;;;11.54;100.00
27334;BME280;14817;57.104;-2.094;2023-05-10T10:13:07;99721.22;;;11.34;100.00
27334;BME280;14817;57.104;-2.094;2023-05-10T10:15:34;99730.75;;;11.37;100.00
27334;BME280;14817;57.104;-2.094;2023-05-10T10:18:02;99729.56;;;11.62;100.00
27334;BME280;14817;57.104;-2.094;2023-05-10T10:20:31;99729.16;;;11.51;100.00
27334;BME280;14817;57.104;-2.094;2023-05-10T10:22:57;99734.75;;;11.41;100.00
27334;BME280;14817;57.104;-2.094;2023-05-10T10:25:25;99725.09;;;11.32;100.00
27334;BME280;14817;57.104;-2.094;2023-05-10T10:30:27;99719.66;;;11.17;100.00
27334;BME280;14817;57.104;-2.094;2023-05-10T10:35:53;99705.81;;;11.59;100.00
27334;BME280;14817;57.104;-2.094;2023-05-10T10:38:20;99711.88;;;11.76;100.00
27334;BME280;14817;57.104;-2.094;2023-05-10T10:40:47;99705.44;;;11.85;100.00
27334;BME280;14817;57.104;-2.094;2023-05-10T10:43:27;99712.13;;;11.90;100.00
27334;BME280;14817;57.104;-2.094;2023-05-10T10:46:16;99701.34;;;11.98;100.00
27334;BME280;14817;57.104;-2.094;2023-05-10T10:48:49;99706.94;;;11.88;100.00
27334;BME280;14817;57.104;-2.094;2023-05-10T10:51:18;99714.03;;;11.81;100.00
27334;BME280;14817;57.104;-2.094;2023-05-10T10:53:47;99718.34;;;11.82;100.00
27334;BME280;14817;57.104;-2.094;2023-05-10T10:56:14;99705.22;;;11.95;100.00
27334;BME280;14817;57.104;-2.094;2023-05-10T10:58:49;99714.53;;;12.37;100.00
27334;BME280;14817;57.104;-2.094;2023-05-10T11:01:18;99707.66;;;12.20;100.00
27334;BME280;14817;57.104;-2.094;2023-05-10T11:06:31;99711.59;;;11.94;100.00
27334;BME280;14817;57.104;-2.094;2023-05-10T11:08:59;99708.38;;;12.14;100.00
27334;BME280;14817;57.104;-2.094;2023-05-10T11:11:25;99699.47;;;11.98;100.00
27334;BME280;14817;57.104;-2.094;2023-05-10T11:13:52;99707.25;;;11.93;100.00
27334;BME280;14817;57.104;-2.094;2023-05-10T11:16:24;99700.25;;;12.22;100.00
27334;BME280;14817;57.104;-2.094;2023-05-10T11:19:15;99707.09;;;12.24;100.00
27334;BME280;14817;57.104;-2.094;2023-05-10T11:21:47;99698.22;;;12.24;100.00
27334;BME280;14817;57.104;-2.094;2023-05-10T11:24:17;99696.19;;;12.56;100.00
27334;BME280;14817;57.104;-2.094;2023-05-10T11:26:44;99690.81;;;12.71;100.00
27334;BME280;14817;57.104;-2.094;2023-05-10T11:29:12;99689.03;;;12.78;100.00
27334;BME280;14817;57.104;-2.094;2023-05-10T11:31:46;99686.69;;;13.04;100.00
27334;BME280;14817;57.104;-2.094;2023-05-10T11:34:28;99695.28;;;12.78;100.00
27334;BME280;14817;57.104;-2.094;2023-05-10T11:37:01;99688.50;;;12.82;100.00
27334;BME280;14817;57.104;-2.094;2023-05-10T11:39:30;99678.38;;;13.36;100.00
27334;BME280;14817;57.104;-2.094;2023-05-10T11:41:58;99688.31;;;13.20;100.00
27334;BME280;14817;57.104;-2.094;2023-05-10T11:44:29;99690.41;;;12.88;100.00
27334;BME280;14817;57.104;-2.094;2023-05-10T11:47:03;99686.19;;;12.79;100.00
27334;BME280;14817;57.104;-2.094;2023-05-10T11:49:30;99697.66;;;12.73;100.00
27334;BME280;14817;57.104;-2.094;2023-05-10T11:52:09;99686.66;;;12.83;100.00
27334;BME280;14817;57.104;-2.094;2023-05-10T11:54:37;99690.06;;;12.92;100.00
27334;BME280;14817;57.104;-2.094;2023-05-10T11:57:04;99697.66;;;12.73;100.00
27334;BME280;14817;57.104;-2.094;2023-05-10T11:59:31;99689.16;;;12.70;100.00
27334;BME280;14817;57.104;-2.094;2023-05-10T12:01:58;99691.72;;;12.93;100.00
27334;BME280;14817;57.104;-2.094;2023-05-10T12:04:25;99698.19;;;12.98;100.00
27334;BME280;14817;57.104;-2.094;2023-05-10T12:06:53;99690.50;;;13.10;100.00
27334;BME280;14817;57.104;-2.094;2023-05-10T12:09:21;99696.41;;;13.05;100.00
27334;BME280;14817;57.104;-2.094;2023-05-10T12:12:08;99695.44;;;12.92;100.00
27334;BME280;14817;57.104;-2.094;2023-05-10T12:14:35;99699.59;;;12.94;100.00
27334;BME280;14817;57.104;-2.094;2023-05-10T12:17:02;99700.75;;;12.70;100.00
27334;BME280;14817;57.104;-2.094;2023-05-10T12:19:36;99700.41;;;12.95;100.00
27334;BME280;14817;57.104;-2.094;2023-05-10T12:22:06;99701.38;;;12.72;100.00
27334;BME280;14817;57.104;-2.094;2023-05-10T12:24:37;99704.81;;;12.51;100.00
27334;BME280;14817;57.104;-2.094;2023-05-10T12:27:10;99698.22;;;12.24;100.00
27334;BME280;14817;57.104;-2.094;2023-05-10T12:29:41;99698.72;;;12.42;100.00
27334;BME280;14817;57.104;-2.094;2023-05-10T12:32:10;99699.16;;;12.31;100.00
27334;BME280;14817;57.104;-2.094;2023-05-10T12:34:38;99698.72;;;12.42;100.00
27334;BME280;14817;57.104;-2.094;2023-05-10T12:37:05;99709.28;;;12.44;100.00
27334;BME280;14817;57.104;-2.094;2023-05-10T12:39:43;99702.22;;;12.43;100.00
27334;BME280;14817;57.104;-2.094;2023-05-10T12:42:10;99703.50;;;12.77;100.00
27334;BME280;14817;57.104;-2.094;2023-05-10T12:44:38;99699.81;;;12.33;100.00
27334;BME280;14817;57.104;-2.094;2023-05-10T12:47:06;99699.34;;;12.44;100.00
27334;BME280;14817;57.104;-2.094;2023-05-10T12:49:33;99693.91;;;12.68;100.00
27334;BME280;14817;57.104;-2.094;2023-05-10T12:52:00;99694.16;;;12.73;100.00
27334;BME280;14817;57.104;-2.094;2023-05-10T12:54:27;99698.72;;;12.57;100.00
27334;BME280;14817;57.104;-2.094;2023-05-10T12:56:54;99693.69;;;12.69;100.00
27334;BME280;14817;57.104;-2.094;2023-05-10T12:59:21;99700.75;;;12.70;100.00
27334;BME280;14817;57.104;-2.094;2023-05-10T13:01:49;99697.22;;;12.70;100.00
27334;BME280;14817;57.104;-2.094;2023-05-10T13:04:18;99706.84;;;12.49;100.00
27334;BME280;14817;57.104;-2.094;2023-05-10T13:06:44;99706.47;;;12.52;100.00
27334;BME280;14817;57.104;-2.094;2023-05-10T13:09:11;99702.59;;;12.40;100.00
27334;BME280;14817;57.104;-2.094;2023-05-10T13:11:39;99696.47;;;12.16;100.00
27334;BME280;14817;57.104;-2.094;2023-05-10T13:14:06;99694.81;;;12.45;100.00
27334;BME280;14817;57.104;-2.094;2023-05-10T13:16:33;99694.97;;;12.73;100.00
27334;BME280;14817;57.104;-2.094;2023-05-10T13:19:00;99694.81;;;12.60;100.00
27334;BME280;14817;57.104;-2.094;2023-05-10T13:21:27;99693.34;;;12.57;100.00
27334;BME280;14817;57.104;-2.094;2023-05-10T13:23:54;99680.56;;;12.59;100.00
27334;BME280;14817;57.104;-2.094;2023-05-10T13:26:21;99686.56;;;12.46;100.00
27334;BME280;14817;57.104;-2.094;2023-05-10T13:28:48;99686.75;;;12.45;100.00